Accueil
METAR-TAF:

METAR-TAF

Aéroports :

Aéroport de Valence-Chabeuil

Valence, France

latitude: 44-54-58N, longitude: 4-58-06E, altitude: 160 m

Observation

Le bulletin a été fait il y a 9 heures et 5 minutes, à 18:00 UTC
Vent 2 kt de nord-est
Température 9°C
Humidité 66%
Pression 1021 hPa
Visibilité 10 km ou plus
Nuages épars à une hauteur de 5800 ft
Nuages fragmentés à une hauteur de 7400 ft

METAR: LFLU 091800Z AUTO 04002KT 9999 SCT058 BKN074 09/03 Q1021

Heure: 04:05 (03:05 UTC)


TAF: absent

Observations et prévisions météorologiques de plus de 4000 aéroports (messages METAR et TAF).

Les stations disponibles sont représentées par des disques jaunes et rouges sur la carte.

Passer la souris dessus pour voir le nom de la station.

Cliquer dessus pour voir les observations et prévisions météorologiques.

Pour changer de carte: cliquez sur les boutons verts avec une croix noire pour zoomer, sur le bouton vert avec un tiret pour effectuer un zoom arrière, ou sur les flèches vertes pour les cartes adjacentes.


METAR-TAF: